HUEN

Entebbe International Airport

Kampala, Uganda
METAR HUEN 162130Z 27004KT 9999 FEW020 FEW022CB 21/20 Q1018
Observed Flight Rules
Dec-16 @ 21:30 UTC (33 minutes ago) Visual Flight Rules
Wind Visibility Clouds
270° at 4 knots 10,000+ meters
  • Few at 2,000' AGL
  • Few at 2,200' AGL
Temperatures Readings
Current 21°C / 70°F
Dewpoint 20°C / 68°F
Humidity 94%
Altimeter 30.06" Hg
Pressure 1018 hPa
Elevation 1155
METAR HUEN 162130Z 27004KT 9999 FEW020 FEW022CB 21/20 Q1018
Observed Flight Rules
Dec-16 @ 21:30 UTC
(33 minutes ago)
VFR
Wind Visibility
270° at 4 knots 10,000+ meters
Clouds
  • Few at 2,000' AGL
  • Few at 2,200' AGL
Temperature Dewpoint
21°C / 70°F 20°C / 68°F
Humidity Altimeter Pressure
94% 30.06" Hg 1018 hPa